createdAt,value
2018-11-29T00:00:17.047Z,94075.59
2018-11-29T00:02:45.522Z,94076.03
2018-11-29T00:05:14.019Z,94078.97
2018-11-29T00:07:42.688Z,94080.67
2018-11-29T00:10:11.471Z,94079.83
2018-11-29T00:12:40.166Z,94081.09
2018-11-29T00:15:13.211Z,94083.62
2018-11-29T00:17:41.773Z,94084.91
2018-11-29T00:20:12.083Z,94092.09
2018-11-29T00:22:40.606Z,94090.41
2018-11-29T00:25:10.209Z,94098.02
2018-11-29T00:27:38.737Z,94099.28
2018-11-29T00:30:09.765Z,94094.19
2018-11-29T00:32:38.243Z,94098.43
2018-11-29T00:35:08.145Z,94099.70
2018-11-29T00:37:36.960Z,94103.92
2018-11-29T00:40:07.698Z,94101.81
2018-11-29T00:42:36.449Z,94100.11
2018-11-29T00:45:06.457Z,94108.13
2018-11-29T00:47:35.158Z,94108.14
2018-11-29T00:50:03.975Z,94107.30
2018-11-29T00:52:32.476Z,94114.89
2018-11-29T00:55:01.091Z,94119.14
2018-11-29T00:57:29.784Z,94114.48
2018-11-29T00:59:58.501Z,94115.75
2018-11-29T01:02:26.893Z,94117.45
2018-11-29T01:04:55.564Z,94117.41
2018-11-29T01:07:24.145Z,94128.41
2018-11-29T01:09:52.654Z,94135.59
2018-11-29T01:12:21.319Z,94118.69
2018-11-29T01:14:49.916Z,94118.69
2018-11-29T01:17:18.433Z,94130.92
2018-11-29T01:19:47.087Z,94133.88
2018-11-29T01:22:15.655Z,94139.37
2018-11-29T01:24:44.250Z,94126.69
2018-11-29T01:27:19.494Z,94132.59
2018-11-29T01:29:47.934Z,94138.95
2018-11-29T01:32:16.119Z,94144.88
2018-11-29T01:34:44.594Z,94144.00
2018-11-29T01:37:13.033Z,94134.31
2018-11-29T01:39:41.694Z,94133.05
2018-11-29T01:42:09.952Z,94135.58
2018-11-29T01:44:38.431Z,94147.80
2018-11-29T01:47:06.685Z,94145.72
2018-11-29T01:49:35.278Z,94146.18
2018-11-29T01:52:03.684Z,94144.04
2018-11-29T01:54:32.102Z,94144.88
2018-11-29T01:57:00.607Z,94148.24
2018-11-29T01:59:28.940Z,94157.13
2018-11-29T02:01:57.401Z,94152.48
2018-11-29T02:04:25.879Z,94159.22
2018-11-29T02:06:54.417Z,94154.58
2018-11-29T02:09:23.056Z,94158.84
2018-11-29T02:11:51.374Z,94159.64
2018-11-29T02:14:19.894Z,94150.39
2018-11-29T02:16:48.392Z,94162.17
2018-11-29T02:19:16.810Z,94163.84
2018-11-29T02:21:45.507Z,94161.33
2018-11-29T02:24:14.040Z,94157.48
2018-11-29T02:26:42.364Z,94166.36
2018-11-29T02:29:10.883Z,94171.42
2018-11-29T02:31:39.351Z,94182.85
2018-11-29T02:34:07.915Z,94172.27
2018-11-29T02:36:36.248Z,94169.34
2018-11-29T02:39:06.171Z,94181.16
2018-11-29T02:41:34.544Z,94190.00
2018-11-29T02:44:03.188Z,94180.34
2018-11-29T02:46:31.305Z,94192.19
2018-11-29T02:48:59.670Z,94197.22
2018-11-29T02:51:27.890Z,94198.53
2018-11-29T02:53:56.502Z,94199.34
2018-11-29T02:56:24.915Z,94207.36
2018-11-29T02:58:53.436Z,94205.64
2018-11-29T03:01:23.034Z,94206.43
2018-11-29T03:03:51.609Z,94208.53
2018-11-29T03:06:20.258Z,94215.29
2018-11-29T03:08:48.687Z,94215.73
2018-11-29T03:11:17.374Z,94219.11
2018-11-29T03:13:45.958Z,94211.91
2018-11-29T03:16:14.443Z,94213.95
2018-11-29T03:18:42.897Z,94221.61
2018-11-29T03:21:11.206Z,94235.61
2018-11-29T03:23:39.605Z,94233.05
2018-11-29T03:26:08.026Z,94228.41
2018-11-29T03:28:36.355Z,94235.58
2018-11-29T03:31:04.894Z,94230.50
2018-11-29T03:33:33.357Z,94244.02
2018-11-29T03:36:01.563Z,94242.34
2018-11-29T03:38:30.117Z,94249.50
2018-11-29T03:40:58.743Z,94246.09
2018-11-29T03:43:27.048Z,94251.11
2018-11-29T03:45:55.469Z,94254.95
2018-11-29T03:48:23.666Z,94248.61
2018-11-29T03:50:51.951Z,94257.11
2018-11-29T03:53:20.469Z,94257.98
2018-11-29T03:55:48.864Z,94259.22
2018-11-29T03:58:17.154Z,94268.93
2018-11-29T04:00:45.805Z,94272.25
2018-11-29T04:03:14.013Z,94268.52
2018-11-29T04:05:42.505Z,94270.68
2018-11-29T04:08:10.900Z,94281.68
2018-11-29T04:10:39.372Z,94279.64
2018-11-29T04:13:07.941Z,94280.47
2018-11-29T04:15:36.351Z,94280.43
2018-11-29T04:18:05.344Z,94284.30
2018-11-29T04:20:33.851Z,94288.44
2018-11-29T04:23:02.289Z,94293.59
2018-11-29T04:25:30.826Z,94294.44
2018-11-29T04:27:59.413Z,94292.31
2018-11-29T04:30:27.691Z,94298.67
2018-11-29T04:32:56.386Z,94309.72
2018-11-29T04:35:24.880Z,94316.47
2018-11-29T04:37:53.363Z,94318.98
2018-11-29T04:40:21.969Z,94326.61
2018-11-29T04:42:50.502Z,94323.21
2018-11-29T04:45:18.904Z,94329.50
2018-11-29T04:47:47.511Z,94326.17
2018-11-29T04:50:16.644Z,94333.84
2018-11-29T04:52:44.849Z,94335.54
2018-11-29T04:55:13.284Z,94341.02
2018-11-29T04:57:41.985Z,94346.09
2018-11-29T05:00:16.953Z,94349.91
2018-11-29T05:02:45.608Z,94346.97
2018-11-29T05:05:14.175Z,94341.91
2018-11-29T05:07:42.522Z,94340.62
2018-11-29T05:10:12.023Z,94337.23
2018-11-29T05:12:40.491Z,94344.45
2018-11-29T05:15:10.124Z,94347.37
2018-11-29T05:17:38.543Z,94357.06
2018-11-29T05:20:06.931Z,94362.52
2018-11-29T05:22:35.251Z,94364.67
2018-11-29T05:25:03.602Z,94366.86
2018-11-29T05:27:32.119Z,94367.34
2018-11-29T05:30:00.646Z,94370.63
2018-11-29T05:32:28.961Z,94368.50
2018-11-29T05:34:57.366Z,94371.09
2018-11-29T05:37:26.016Z,94373.55
2018-11-29T05:39:54.367Z,94377.88
2018-11-29T05:42:22.788Z,94371.52
2018-11-29T05:44:51.086Z,94379.60
2018-11-29T05:47:19.640Z,94380.02
2018-11-29T05:49:47.922Z,94386.43
2018-11-29T05:52:16.544Z,94387.29
2018-11-29T05:54:45.188Z,94394.09
2018-11-29T05:57:13.697Z,94400.03
2018-11-29T05:59:42.190Z,94411.06
2018-11-29T06:02:10.603Z,94418.68
2018-11-29T06:04:39.174Z,94413.19
2018-11-29T06:07:07.899Z,94411.06
2018-11-29T06:09:36.402Z,94420.32
2018-11-29T06:12:05.299Z,94427.08
2018-11-29T06:14:33.871Z,94418.27
2018-11-29T06:17:02.233Z,94426.38
2018-11-29T06:19:31.087Z,94431.92
2018-11-29T06:21:59.645Z,94439.63
2018-11-29T06:24:28.449Z,94438.72
2018-11-29T06:26:56.968Z,94442.22
2018-11-29T06:29:25.554Z,94444.05
2018-11-29T06:31:54.081Z,94445.33
2018-11-29T06:34:22.837Z,94447.49
2018-11-29T06:36:51.848Z,94451.39
2018-11-29T06:39:20.604Z,94446.77
2018-11-29T06:41:49.123Z,94453.91
2018-11-29T06:44:17.733Z,94458.20
2018-11-29T06:46:46.456Z,94456.52
2018-11-29T06:49:15.221Z,94459.41
2018-11-29T06:51:44.045Z,94470.05
2018-11-29T06:54:12.717Z,94471.30
2018-11-29T06:56:41.330Z,94465.77
2018-11-29T06:59:10.109Z,94471.27
2018-11-29T07:01:38.872Z,94472.22
2018-11-29T07:04:07.186Z,94471.05
2018-11-29T07:06:35.868Z,94462.98
2018-11-29T07:09:05.649Z,94464.78
2018-11-29T07:11:34.177Z,94474.59
2018-11-29T07:14:02.900Z,94475.00
2018-11-29T07:16:31.810Z,94472.05
2018-11-29T07:19:00.120Z,94467.39
2018-11-29T07:21:39.421Z,94479.70
2018-11-29T07:24:07.836Z,94480.56
2018-11-29T07:26:36.353Z,94487.36
2018-11-29T07:29:04.850Z,94492.47
2018-11-29T07:31:33.169Z,94482.27
2018-11-29T07:34:01.804Z,94491.20
2018-11-29T07:36:30.388Z,94487.79
2018-11-29T07:38:58.874Z,94486.52
2018-11-29T07:41:27.845Z,94488.64
2018-11-29T07:43:56.475Z,94483.11
2018-11-29T07:46:25.354Z,94486.95
2018-11-29T07:48:53.847Z,94499.63
2018-11-29T07:51:22.407Z,94500.50
2018-11-29T07:53:51.220Z,94500.55
2018-11-29T07:56:19.713Z,94500.92
2018-11-29T07:58:51.784Z,94491.17
2018-11-29T08:01:17.176Z,94492.86
2018-11-29T08:03:45.973Z,94501.77
2018-11-29T08:06:14.766Z,94512.38
2018-11-29T08:08:43.297Z,94527.09
2018-11-29T08:11:11.941Z,94522.85
2018-11-29T08:13:40.843Z,94517.37
2018-11-29T08:16:09.686Z,94511.36
2018-11-29T08:18:38.350Z,94513.02
2018-11-29T08:21:07.080Z,94512.91
2018-11-29T08:23:35.663Z,94523.61
2018-11-29T08:26:04.297Z,94514.73
2018-11-29T08:28:33.020Z,94515.46
2018-11-29T08:31:01.908Z,94527.01
2018-11-29T08:33:30.402Z,94523.38
2018-11-29T08:35:59.020Z,94519.18
2018-11-29T08:38:27.974Z,94531.38
2018-11-29T08:40:56.691Z,94539.43
2018-11-29T08:43:25.373Z,94533.98
2018-11-29T08:45:54.014Z,94535.73
2018-11-29T08:48:22.720Z,94535.27
2018-11-29T08:50:51.397Z,94531.52
2018-11-29T08:53:19.951Z,94529.82
2018-11-29T08:55:48.625Z,94527.28
2018-11-29T08:58:17.238Z,94522.18
2018-11-29T09:00:45.626Z,94525.16
2018-11-29T09:03:14.364Z,94529.40
2018-11-29T09:05:42.996Z,94525.14
2018-11-29T09:08:11.881Z,94516.66
2018-11-29T09:10:40.578Z,94530.18
2018-11-29T09:13:09.122Z,94528.52
2018-11-29T09:15:37.803Z,94526.42
2018-11-29T09:18:06.506Z,94525.08
2018-11-29T09:20:34.863Z,94519.17
2018-11-29T09:23:03.379Z,94525.51
2018-11-29T09:25:31.947Z,94518.34
2018-11-29T09:28:00.435Z,94524.27
2018-11-29T09:30:29.375Z,94521.73
2018-11-29T09:32:57.951Z,94506.47
2018-11-29T09:35:26.617Z,94506.47
2018-11-29T09:37:55.246Z,94512.00
2018-11-29T09:40:23.770Z,94504.78
2018-11-29T09:42:52.583Z,94498.41
2018-11-29T09:45:22.652Z,94492.89
2018-11-29T09:47:55.635Z,94494.17
2018-11-29T09:50:24.960Z,94493.73
2018-11-29T09:52:53.628Z,94493.31
2018-11-29T09:55:22.355Z,94494.56
2018-11-29T09:57:51.578Z,94495.87
2018-11-29T10:00:27.692Z,94497.55
2018-11-29T10:03:09.224Z,94492.83
2018-11-29T10:05:37.542Z,94499.61
2018-11-29T10:08:11.683Z,94499.25
2018-11-29T10:10:35.343Z,94496.67
2018-11-29T10:13:03.939Z,94492.02
2018-11-29T10:15:32.501Z,94484.39
2018-11-29T10:18:00.936Z,94479.69
2018-11-29T10:20:29.570Z,94487.78
2018-11-29T10:22:58.274Z,94486.50
2018-11-29T10:25:26.724Z,94481.83
2018-11-29T10:27:58.818Z,94488.63
2018-11-29T10:30:29.403Z,94489.48
2018-11-29T10:32:58.010Z,94483.11
2018-11-29T10:35:26.610Z,94481.38
2018-11-29T10:37:55.154Z,94483.10
2018-11-29T10:40:23.749Z,94488.19
2018-11-29T10:42:52.496Z,94486.93
2018-11-29T10:45:21.487Z,94495.00
2018-11-29T10:47:52.397Z,94488.63
2018-11-29T10:50:20.047Z,94486.93
2018-11-29T10:52:48.736Z,94488.55
2018-11-29T10:55:18.001Z,94479.11
2018-11-29T10:57:46.744Z,94472.76
2018-11-29T11:00:25.935Z,94477.83
2018-11-29T11:03:01.597Z,94487.22
2018-11-29T11:05:30.179Z,94490.16
2018-11-29T11:07:58.760Z,94482.22
2018-11-29T11:10:27.706Z,94483.78
2018-11-29T11:12:57.492Z,94487.02
2018-11-29T11:15:26.194Z,94487.57
2018-11-29T11:17:54.924Z,94482.87
2018-11-29T11:20:23.735Z,94488.77
2018-11-29T11:22:52.857Z,94493.52
2018-11-29T11:28:18.957Z,94481.92
2018-11-29T11:30:47.773Z,94477.69
2018-11-29T11:33:16.361Z,94475.88
2018-11-29T11:35:44.879Z,94474.12
2018-11-29T11:38:13.569Z,94469.34
2018-11-29T11:40:42.498Z,94467.82
2018-11-29T11:43:11.240Z,94470.02
2018-11-29T11:45:39.900Z,94466.27
2018-11-29T11:48:08.587Z,94470.10
2018-11-29T11:50:37.709Z,94465.88
2018-11-29T11:53:07.640Z,94470.94
2018-11-29T11:55:36.853Z,94460.56
2018-11-29T11:58:06.048Z,94453.83
2018-11-29T12:00:34.926Z,94458.78
2018-11-29T12:03:06.696Z,94446.33
2018-11-29T12:05:35.665Z,94443.06
2018-11-29T12:08:04.468Z,94433.67
2018-11-29T12:10:33.455Z,94442.66
2018-11-29T12:13:02.095Z,94440.95
2018-11-29T12:15:30.991Z,94441.47
2018-11-29T12:17:59.763Z,94437.63
2018-11-29T12:20:28.334Z,94438.38
2018-11-29T12:22:56.954Z,94433.97
2018-11-29T12:25:25.619Z,94431.33
2018-11-29T12:27:54.067Z,94432.84
2018-11-29T12:30:24.727Z,94437.79
2018-11-29T12:32:54.347Z,94426.17
2018-11-29T12:35:22.885Z,94431.19
2018-11-29T12:37:53.154Z,94425.68
2018-11-29T12:40:20.398Z,94424.80
2018-11-29T12:42:49.200Z,94425.44
2018-11-29T12:45:22.610Z,94437.55
2018-11-29T12:47:51.293Z,94439.18
2018-11-29T12:50:21.070Z,94428.72
2018-11-29T12:52:49.786Z,94426.23
2018-11-29T12:55:19.080Z,94420.77
2018-11-29T12:57:47.798Z,94427.16
2018-11-29T13:00:18.914Z,94437.58
2018-11-29T13:02:53.244Z,94436.73
2018-11-29T13:05:22.080Z,94427.38
2018-11-29T13:07:51.105Z,94421.48
2018-11-29T13:10:21.384Z,94420.69
2018-11-29T13:12:50.067Z,94429.17
2018-11-29T13:15:23.278Z,94428.77
2018-11-29T13:17:54.243Z,94424.93
2018-11-29T13:20:24.421Z,94430.05
2018-11-29T13:22:53.505Z,94425.39
2018-11-29T13:25:23.522Z,94431.74
2018-11-29T13:27:52.486Z,94430.46
2018-11-29T13:30:22.034Z,94443.19
2018-11-29T13:32:51.528Z,94439.38
2018-11-29T13:35:22.063Z,94440.63
2018-11-29T13:37:58.997Z,94431.31
2018-11-29T13:40:28.087Z,94444.87
2018-11-29T13:42:56.755Z,94444.42
2018-11-29T13:45:25.749Z,94449.53
2018-11-29T13:47:54.353Z,94444.45
2018-11-29T13:50:22.757Z,94449.52
2018-11-29T13:52:51.590Z,94450.38
2018-11-29T13:55:20.494Z,94446.15
2018-11-29T13:57:50.699Z,94446.95
2018-11-29T14:00:20.798Z,94446.04
2018-11-29T14:02:54.233Z,94444.34
2018-11-29T14:05:23.322Z,94437.94
2018-11-29T14:07:52.175Z,94450.63
2018-11-29T14:10:21.990Z,94453.50
2018-11-29T14:12:51.963Z,94442.03
2018-11-29T14:15:22.473Z,94450.06
2018-11-29T14:17:51.714Z,94441.08
2018-11-29T14:20:20.670Z,94443.97
2018-11-29T14:22:49.816Z,94439.44
2018-11-29T14:25:18.617Z,94444.06
2018-11-29T14:27:49.510Z,94436.45
2018-11-29T14:30:19.434Z,94450.00
2018-11-29T14:32:49.156Z,94449.53
2018-11-29T14:35:17.753Z,94443.20
2018-11-29T14:37:46.688Z,94443.91
2018-11-29T14:40:18.402Z,94447.71
2018-11-29T14:42:47.153Z,94457.63
2018-11-29T14:45:16.602Z,94461.83
2018-11-29T14:47:45.700Z,94461.30
2018-11-29T14:50:19.412Z,94462.56
2018-11-29T14:52:48.174Z,94465.38
2018-11-29T14:55:16.734Z,94480.14
2018-11-29T14:57:45.599Z,94476.63
2018-11-29T15:00:14.482Z,94473.26
2018-11-29T15:02:43.172Z,94474.86
2018-11-29T15:05:23.456Z,94462.12
2018-11-29T15:07:52.319Z,94463.72
2018-11-29T15:10:21.331Z,94476.22
2018-11-29T15:12:50.234Z,94477.78
2018-11-29T15:15:18.876Z,94461.84
2018-11-29T15:17:48.120Z,94468.92
2018-11-29T15:20:21.960Z,94469.80
2018-11-29T15:22:50.508Z,94476.39
2018-11-29T15:25:19.136Z,94466.73
2018-11-29T15:27:47.993Z,94473.70
2018-11-29T15:30:18.947Z,94461.48
2018-11-29T15:32:47.998Z,94467.53
2018-11-29T15:35:16.705Z,94468.03
2018-11-29T15:37:45.737Z,94460.80
2018-11-29T15:40:15.560Z,94475.55
2018-11-29T15:42:44.442Z,94482.22
2018-11-29T15:45:28.749Z,94478.45
2018-11-29T15:47:57.447Z,94483.48
2018-11-29T15:50:26.317Z,94490.66
2018-11-29T15:52:55.237Z,94490.37
2018-11-29T15:55:24.065Z,94496.34
2018-11-29T15:57:53.169Z,94491.72
2018-11-29T16:00:23.740Z,94480.80
2018-11-29T16:02:52.726Z,94489.66
2018-11-29T16:05:21.337Z,94496.68
2018-11-29T16:07:49.957Z,94499.13
2018-11-29T16:10:19.577Z,94492.06
2018-11-29T16:12:48.119Z,94497.16
2018-11-29T16:15:17.437Z,94497.16
2018-11-29T16:17:46.526Z,94501.41
2018-11-29T16:20:32.351Z,94503.12
2018-11-29T16:23:01.138Z,94502.80
2018-11-29T16:25:29.882Z,94496.31
2018-11-29T16:27:58.471Z,94494.62
2018-11-29T16:30:43.493Z,94498.84
2018-11-29T16:33:13.789Z,94500.98
2018-11-29T16:35:42.406Z,94496.41
2018-11-29T16:38:10.959Z,94494.30
2018-11-29T16:40:39.674Z,94500.79
2018-11-29T16:43:08.586Z,94500.69
2018-11-29T16:45:37.504Z,94500.61
2018-11-29T16:48:06.708Z,94512.87
2018-11-29T16:50:35.789Z,94507.81
2018-11-29T16:53:04.818Z,94517.92
2018-11-29T16:55:33.717Z,94510.92
2018-11-29T16:58:03.891Z,94513.80
2018-11-29T17:00:32.485Z,94509.55
2018-11-29T17:03:01.386Z,94519.27
2018-11-29T17:05:30.128Z,94517.16
2018-11-29T17:07:59.184Z,94517.91
2018-11-29T17:10:27.865Z,94513.33
2018-11-29T17:12:57.713Z,94517.10
2018-11-29T17:15:26.336Z,94519.59
2018-11-29T17:17:54.928Z,94516.47
2018-11-29T17:20:23.802Z,94513.64
2018-11-29T17:22:52.915Z,94517.89
2018-11-29T17:25:21.463Z,94510.30
2018-11-29T17:27:49.962Z,94513.25
2018-11-29T17:30:20.248Z,94516.16
2018-11-29T17:32:50.350Z,94511.69
2018-11-29T17:35:18.929Z,94500.73
2018-11-29T17:37:47.892Z,94515.84
2018-11-29T17:40:18.715Z,94504.86
2018-11-29T17:42:47.475Z,94510.34
2018-11-29T17:45:17.041Z,94517.58
2018-11-29T17:47:45.668Z,94509.03
2018-11-29T17:50:18.801Z,94509.30
2018-11-29T17:52:47.793Z,94508.47
2018-11-29T17:55:16.549Z,94510.64
2018-11-29T17:57:45.426Z,94506.28
2018-11-29T18:00:20.151Z,94511.92
2018-11-29T18:02:48.917Z,94509.89
2018-11-29T18:05:17.475Z,94501.03
2018-11-29T18:07:46.235Z,94500.95
2018-11-29T18:10:18.815Z,94494.50
2018-11-29T18:12:48.959Z,94510.95
2018-11-29T18:15:21.743Z,94511.32
2018-11-29T18:17:51.144Z,94510.90
2018-11-29T18:20:19.784Z,94507.44
2018-11-29T18:22:49.275Z,94493.61
2018-11-29T18:25:17.984Z,94501.53
2018-11-29T18:27:48.873Z,94504.84
2018-11-29T18:30:18.781Z,94506.44
2018-11-29T18:32:47.475Z,94501.05
2018-11-29T18:35:16.349Z,94498.55
2018-11-29T18:37:45.889Z,94497.62
2018-11-29T18:40:17.090Z,94502.70
2018-11-29T18:42:46.732Z,94501.47
2018-11-29T18:45:16.258Z,94501.02
2018-11-29T18:47:45.595Z,94500.02
2018-11-29T18:50:17.424Z,94509.39
2018-11-29T18:52:46.193Z,94508.52
2018-11-29T18:55:14.967Z,94502.16
2018-11-29T18:57:43.888Z,94503.41
2018-11-29T19:00:15.466Z,94503.04
2018-11-29T19:02:44.467Z,94501.14
2018-11-29T19:05:13.307Z,94507.43
2018-11-29T19:07:42.456Z,94512.13
2018-11-29T19:10:15.900Z,94502.80
2018-11-29T19:12:49.174Z,94498.19
2018-11-29T19:15:18.197Z,94495.56
2018-11-29T19:17:47.252Z,94502.28
2018-11-29T19:20:16.025Z,94503.02
2018-11-29T19:22:44.834Z,94508.47
2018-11-29T19:25:16.647Z,94507.50
2018-11-29T19:27:45.534Z,94506.30
2018-11-29T19:30:17.800Z,94507.95
2018-11-29T19:32:47.710Z,94505.87
2018-11-29T19:35:17.051Z,94494.92
2018-11-29T19:37:45.725Z,94493.52
2018-11-29T19:40:15.293Z,94503.92
2018-11-29T19:42:44.020Z,94500.45
2018-11-29T19:45:13.451Z,94504.70
2018-11-29T19:47:42.980Z,94502.38
2018-11-29T19:50:14.940Z,94497.57
2018-11-29T19:52:44.683Z,94493.67
2018-11-29T19:55:15.876Z,94501.97
2018-11-29T19:57:44.881Z,94510.64
2018-11-29T20:00:13.931Z,94504.39
2018-11-29T20:02:43.530Z,94506.53
2018-11-29T20:05:12.728Z,94498.28
2018-11-29T20:07:41.897Z,94507.09
2018-11-29T20:10:13.758Z,94510.25
2018-11-29T20:12:42.742Z,94508.84
2018-11-29T20:15:13.150Z,94502.77
2018-11-29T20:17:41.806Z,94499.16
2018-11-29T20:20:11.404Z,94498.00
2018-11-29T20:22:40.588Z,94497.93
2018-11-29T20:25:14.288Z,94500.63
2018-11-29T20:27:43.025Z,94502.31
2018-11-29T20:30:20.147Z,94510.70
2018-11-29T20:32:49.730Z,94509.02
2018-11-29T20:35:18.611Z,94498.06
2018-11-29T20:37:47.650Z,94498.87
2018-11-29T20:40:20.218Z,94498.48
2018-11-29T20:42:50.411Z,94500.09
2018-11-29T20:45:22.286Z,94493.43
2018-11-29T20:47:51.053Z,94494.66
2018-11-29T20:50:20.577Z,94492.55
2018-11-29T20:52:50.193Z,94495.88
2018-11-29T20:55:20.641Z,94491.11
2018-11-29T20:57:49.353Z,94485.56
2018-11-29T21:00:18.584Z,94489.13
2018-11-29T21:02:47.686Z,94477.91
2018-11-29T21:05:18.095Z,94482.50
2018-11-29T21:07:51.166Z,94484.45
2018-11-29T21:10:21.879Z,94487.36
2018-11-29T21:12:50.780Z,94484.49
2018-11-29T21:15:19.382Z,94485.14
2018-11-29T21:17:48.025Z,94485.41
2018-11-29T21:20:17.413Z,94476.95
2018-11-29T21:22:46.946Z,94483.80
2018-11-29T21:25:19.860Z,94486.33
2018-11-29T21:27:48.808Z,94485.52
2018-11-29T21:30:17.847Z,94487.86
2018-11-29T21:32:46.890Z,94488.39
2018-11-29T21:35:17.725Z,94476.15
2018-11-29T21:37:46.418Z,94472.66
2018-11-29T21:40:21.702Z,94479.70
2018-11-29T21:42:51.051Z,94467.12
2018-11-29T21:45:19.927Z,94469.76
2018-11-29T21:47:48.573Z,94464.89
2018-11-29T21:50:17.353Z,94464.25
2018-11-29T21:52:46.104Z,94467.58
2018-11-29T21:55:14.739Z,94460.37
2018-11-29T21:57:43.760Z,94460.17
2018-11-29T22:00:19.653Z,94452.67
2018-11-29T22:02:49.381Z,94447.41
2018-11-29T22:05:18.125Z,94450.70
2018-11-29T22:07:46.695Z,94454.56
2018-11-29T22:10:15.402Z,94445.65
2018-11-29T22:12:44.025Z,94451.25
2018-11-29T22:15:12.881Z,94447.97
2018-11-29T22:18:17.478Z,94447.01
2018-11-29T22:20:46.146Z,94449.33
2018-11-29T22:23:14.813Z,94452.38
2018-11-29T22:25:43.595Z,94450.88
2018-11-29T22:28:12.350Z,94447.51
2018-11-29T22:30:41.455Z,94441.92
2018-11-29T22:33:09.699Z,94435.57
2018-11-29T22:35:39.169Z,94428.52
2018-11-29T22:38:08.067Z,94425.61
2018-11-29T22:40:36.854Z,94419.73
2018-11-29T22:43:05.780Z,94418.89
2018-11-29T22:45:34.516Z,94419.47
2018-11-29T22:48:03.376Z,94419.46
2018-11-29T22:50:32.008Z,94414.30
2018-11-29T22:53:00.646Z,94413.79
2018-11-29T22:55:29.338Z,94407.82
2018-11-29T22:57:58.070Z,94407.56
2018-11-29T23:00:31.718Z,94406.09
2018-11-29T23:03:00.326Z,94408.98
2018-11-29T23:05:28.935Z,94407.36
2018-11-29T23:07:57.880Z,94397.95
2018-11-29T23:10:26.691Z,94391.44
2018-11-29T23:12:55.301Z,94393.41
2018-11-29T23:15:24.036Z,94392.81
2018-11-29T23:17:52.616Z,94388.19
2018-11-29T23:20:21.423Z,94386.47
2018-11-29T23:22:50.160Z,94386.02
2018-11-29T23:25:18.870Z,94378.28
2018-11-29T23:27:47.779Z,94380.71
2018-11-29T23:30:17.123Z,94374.80
2018-11-29T23:32:45.888Z,94375.84
2018-11-29T23:35:15.228Z,94377.89
2018-11-29T23:37:44.088Z,94378.11
2018-11-29T23:40:14.499Z,94383.27
2018-11-29T23:42:43.049Z,94386.42
2018-11-29T23:45:12.264Z,94382.23
2018-11-29T23:47:40.927Z,94378.94
2018-11-29T23:50:13.246Z,94376.34
2018-11-29T23:52:41.987Z,94376.84
2018-11-29T23:55:11.565Z,94370.38
2018-11-29T23:57:40.125Z,94367.52
